Weather observations for the past three days for
Henderson-Oxford Airport
Metric (Imperial)
Date Time (edt) Wind (kph) Vis. (km) Weather Sky Cond. Temperature (ºC) Relative Humidity Wind Chill (°C) Heat Index (°C) Pressure Precipitation (cm)
Air Dwpt 6 hour altimeter (cm) sea level (mb) 1 hr 3 hr 6 hr
Max. Min.
09 14:55 SW 13 16.09 Mostly Cloudy SCT043 BKN050 20.8 10.6 52% 75.82 0.0
09 14:35 S 15 G 26 16.09 Partly Cloudy SCT044 SCT055 21.3 10.9 52% 75.82 0.0
09 14:15 S 24 G 31 16.09 Partly Cloudy SCT039 SCT046 22.1 11 49% 75.82 0.0
09 13:55 SW 20 G 28 16.09 Mostly Cloudy SCT041 BKN048 21.1 11.2 21.1 12 53% 75.84 0.0
09 13:35 SW 17 16.09 Partly Cloudy SCT043 SCT050 20.5 10.9 54% 75.87 0.0
09 13:15 S 17 G 28 16.09 Partly Cloudy SCT040 SCT047 SCT055 20 10.9 56% 75.9 0.0
09 12:55 SW 20 G 28 16.09 Partly Cloudy SCT037 SCT047 20.9 11 53% 75.92 0.0
09 12:35 S 17 16.09 Partly Cloudy SCT039 SCT047 20.2 10.5 54% 75.92 0.0
09 12:15 SW 19 16.09 Partly Cloudy SCT037 SCT055 20.2 10.7 55% 75.92 0.0
09 11:55 S 20 G 30 16.09 Partly Cloudy SCT037 SCT045 SCT050 20.2 10.6 54% 75.92 0.0
09 11:35 SW 24 G 31 16.09 Fair CLR 20.4 10.5 53% 75.92 0.0
09 11:15 SW 20 G 30 16.09 Fair CLR 20.1 10.4 54% 75.95 0.0
09 10:55 S 17 G 31 16.09 Partly Cloudy SCT036 19.7 10.2 54% 75.95 0.0
09 10:35 SW 13 16.09 Fair CLR 19.3 10.2 56% 75.97 0.0
09 10:15 S 17 G 28 16.09 Fair CLR 18.6 9.7 56% 76 0.0
09 09:55 SW 17 16.09 Partly Cloudy SCT055 17.9 10 60% 76.02 0.0
09 09:35 SW 20 16.09 Mostly Cloudy BKN055 17.2 10.3 64% 76.05 0.0
09 09:15 SW 9 16.09 Fair CLR 16 11.1 73% 76.05 0.0
09 08:55 SW 13 16.09 Fair CLR 14.8 10.6 76% 76.07 0.0
09 08:35 S 9 16.09 Fair CLR 13.5 10.8 84% 76.02 0.0
09 08:15 S 7 16.09 Fair CLR 12.2 10.7 91% 76.05 0.0
09 07:55 S 7 16.09 Fair CLR 12 10.6 12 8 91% 76.07 0.0
09 07:35 S 9 16.09 Fair CLR 11.5 10.5 94% 76.07 0.0
09 07:15 S 7 16.09 Fair CLR 10.6 10.5 99% 76.02 0.0
09 06:55 S 6 16.09 Fair CLR 10 9.8 99% 76 0.0
09 06:35 S 7 16.09 Fair CLR 9.2 9.1 99% 8 76 0.0
09 06:15 S 7 16.09 Fair CLR 9.2 9.1 99% 8 76 0.0
09 05:55 S 7 16.09 Fair CLR 8.1 7.9 99% 7 76 0.0
09 05:35 S 6 16.09 Fair CLR 8.5 8.3 99% 76.02 0.0
09 05:15 S 6 16.09 Fair CLR 8.4 8.2 99% 76.02 0.0
09 04:55 SW 6 16.09 Fair CLR 9.1 8.6 97% 76.05 0.0
09 04:35 S 6 16.09 Fair CLR 9.4 8.5 94% 76.02 0.0
09 04:15 S 7 16.09 Fair CLR 9.5 8.3 92% 9 76.05 0.0
09 03:55 S 11 16.09 Fair CLR 9.6 8.2 91% 8 76.02 0.0
09 03:35 S 7 16.09 Fair CLR 9.6 8.1 90% 9 76.05 0.0
09 03:15 S 6 16.09 Fair CLR 9.5 8 90% 76.05 0.0
09 02:55 S 6 16.09 Fair CLR 10 7.8 86% 76.07 0.0
09 02:35 S 6 16.09 Fair CLR 10 7.6 85% 76.07 0.0
09 02:15 S 7 16.09 Fair CLR 10 7.3 83% 9 76.1 0.0
09 01:55 S 7 16.09 Fair CLR 10.5 7.2 16.1 10.2 80% 76.1 0.0 0.03
09 01:35 S 6 16.09 Fair CLR 10.3 7 80% 76.12 0.0
09 01:15 S 9 16.09 Fair CLR 10.7 6.7 77% 76.15 0.0
09 00:55 S 7 16.09 Fair CLR 11.2 6.4 73% 76.15 0.0
09 00:35 S 9 16.09 Fair CLR 11.6 6 69% 76.12 0.0
09 00:15 S 9 16.09 Fair CLR 11.7 5.5 66% 76.15 0.0
08 23:55 S 9 16.09 Fair CLR 11.8 5.6 66% 76.12 0.0
08 23:35 S 7 16.09 Fair CLR 10.6 6.6 77% 76.12 0.0
08 23:15 S 6 16.09 Fair CLR 11.5 6 69% 76.15 0.0
08 22:55 Calm 16.09 Fair CLR 11.7 5.7 67% 76.15 0.0 0.03 0.03
08 22:35 Calm 16.09 Fair CLR 11.8 5.6 66% 76.17 0.0 0.03
08 22:15 Calm 16.09 Fair CLR 12.1 6.7 70% 76.17 0.0 0.03
08 21:55 Calm 16.09 Fair CLR 12.4 6.5 68% 76.17 0.0
08 21:35 SW 6 16.09 Fair CLR 13 5.7 61% 76.17 0.0
08 21:15 SW 6 16.09 Fair CLR 13.5 4.6 55% 76.15 0.0
08 20:55 S 6 16.09 Fair CLR 12.8 6.7 67% 76.12 0.0
08 20:35 Calm 16.09 Fair CLR 14.7 4.8 52% 76.12 0.0
08 20:15 Calm 16.09 Fair CLR 14.7 5.2 53% 76.12 0.0
08 19:55 S 7 16.09 Fair CLR 16.1 4.9 20.2 16.1 48% 76.12 0.0
08 19:35 S 7 16.09 Fair CLR 17.3 4.6 43% 76.1 0.0
08 18:55 S 9 16.09 Fair CLR 18.8 2.7 34% 76.07 0.0
08 18:35 S 7 16.09 Fair CLR 18.3 3 36% 76.07 0.0
08 18:15 SW 7 16.09 Fair CLR 18.7 2.1 33% 76.07 0.0
08 17:55 SW 9 16.09 Fair CLR 19.4 1.2 30% 76.07 0.0
08 17:35 SW 7 16.09 Fair CLR 19.7 0.3 27% 76.07 0.0
08 17:15 SW 13 16.09 Fair CLR 19.6 1.3 30% 76.1 0.0
08 16:55 S 19 16.09 Fair CLR 19.9 2.1 31% 76.1 0.0
08 16:35 S 13 G 26 16.09 Fair CLR 20.2 1.6 29% 76.12 0.0
08 16:15 SW 9 16.09 Fair CLR 20 2 30% 76.12 0.0
08 15:35 S 6 16.09 Fair CLR 19.7 2 31% 76.15 0.0
08 15:15 S 15 16.09 Fair CLR 19.4 2.1 32% 76.17 0.0
08 14:55 SW 9 16.09 Fair CLR 19.2 2 32% 76.2 0.0
08 14:35 SE 6 16.09 Fair CLR 18.7 3.2 36% 76.23 0.0
08 14:15 Calm 16.09 Fair CLR 18.4 2.5 35% 76.25 0.0
08 13:35 NW 6 16.09 Fair CLR 17.9 1.6 34% 76.25 0.0
08 13:15 Calm 16.09 Fair CLR 17.1 0.7 33% 76.28 0.0
08 12:55 Calm 16.09 Fair CLR 17 2.4 38% 76.3 0.0
08 12:35 W 6 16.09 Fair CLR 16.5 2.2 38% 76.33 0.0
08 12:15 Calm 16.09 Fair CLR 16.2 1.7 38% 76.35 0.0
08 11:55 Calm 16.09 Fair CLR 15.5 1.4 39% 76.38 0.0
08 11:35 Calm 16.09 Fair CLR 15.2 1.5 40% 76.38 0.0
08 11:15 NE 9 16.09 Fair CLR 15 3.4 46% 76.38 0.0
08 10:55 NE 9 16.09 Fair CLR 14.8 3.9 48% 76.38 0.0
08 10:35 NE 6 16.09 Fair CLR 14.3 4.2 51% 76.38 0.0
08 10:15 N 7 16.09 Fair CLR 13.9 5.1 56% 76.38 0.0
08 09:35 N 6 16.09 Fair CLR 12.6 6.1 65% 76.35 0.0
08 09:15 N 11 16.09 Fair CLR 12 6.2 68% 76.35 0.0
08 08:55 Calm 16.09 Fair CLR 11.1 6.7 75% 76.35 0.0
08 08:35 N 7 16.09 Fair CLR 10 6.8 81% 9 76.33 0.0
08 08:15 N 6 16.09 Fair CLR 8.7 7.8 94% 76.3 0.0
08 07:55 Calm 16.09 Fair CLR 8.1 8 9 5.5 99% 76.3 0.0 0.03 0.03
08 07:35 Calm 16.09 Fair CLR 7.8 7.7 99% 76.28 0.0 0.03
08 07:15 Calm 16.09 Fair CLR 7 7 100% 76.25 0.0
08 06:55 Calm 16.09 Fair CLR 6.3 6.2 99% 76.23 0.0
08 06:35 Calm 0.80 Fog VV005 5.6 5.5 99% 76.2 0.0
08 06:15 Calm 0.40 Fog VV002 6 5.8 99% 76.17 0.0
08 05:55 Calm 11.27 Fair CLR 6.1 6 99% 76.17 0.0
08 05:35 Calm 0.40 Fog BKN001 7 7 100% 76.15 0.0
08 05:15 Calm 2.01 Fog/Mist BKN001 7.5 7.5 100% 76.15 0.0
08 04:55 Calm 6.44 Fog/Mist CLR 7.8 7.7 99% 76.12 0.0
08 04:35 Calm 6.44 Fog/Mist BKN001 8.1 8 99% 76.12 0.0
08 04:15 Calm 4.83 Fog/Mist OVC001 8.5 8.3 99% 76.1 0.0
08 03:55 Calm 1.61 Fog/Mist OVC001 8.7 8.6 99% 76.1 0.0
08 03:35 Calm 0.80 Fog OVC001 9 8.8 99% 76.07 0.0
08 03:15 NW 6 1.21 Fog/Mist OVC001 8.7 8.6 99% 76.05 0.0
08 02:55 Calm 2.41 Fog/Mist SCT005 7.9 7.8 99% 76.05 0.0
08 02:35 Calm 1.61 Fog/Mist BKN005 7.7 7.7 100% 76.05 0.0
08 02:15 Calm 6.44 Fog/Mist SCT007 7.8 7.7 99% 76.07 0.0
08 01:55 Calm 8.05 Fog/Mist OVC009 8.4 8.3 9.7 7.5 99% 76.05 0.0
08 01:35 Calm 6.44 Fog/Mist BKN009 7.9 7.8 99% 76.05 0.0
08 01:10 Calm 4.02 Fog/Mist SCT011 8.2 8.1 99% 76.05 0.0
08 00:55 Calm 1.21 Fog/Mist SCT001 OVC011 7.7 7.6 99% 76.05 0.0
08 00:35 Calm 8.05 Fog/Mist OVC013 8.5 8.5 100% 76.02 0.0
08 00:15 Calm 11.27 Overcast OVC013 8.7 8.6 99% 76.02 0.0
07 23:55 Calm 8.05 Fog/Mist OVC013 8.9 8.7 99% 76.02 0.0
07 23:35 Calm 8.05 Fog/Mist OVC015 8.6 8.5 99% 76.02 0.0
07 23:15 Calm 4.02 Fog/Mist BKN017 8.3 8.2 99% 76.02 0.0
07 22:55 Calm 8.05 Fog/Mist SCT001 SCT013 SCT090 8.5 8.4 99% 76 0.0
07 22:35 Calm 11.27 Mostly Cloudy SCT001 SCT013 BKN090 8.7 8.6 99% 75.97 0.0
07 22:15 Calm 4.83 Fog/Mist SCT090 9 8.7 98% 75.95 0.0
07 21:55 Calm 11.27 Partly Cloudy SCT012 SCT080 SCT100 9.1 9 99% 75.92 0.0
07 21:35 Calm 16.09 Mostly Cloudy SCT001 BKN012 BKN080 9.2 9.1 99% 75.92 0.0
07 21:15 Calm 16.09 Overcast OVC010 9.5 9.5 100% 75.9 0.0
07 20:55 Calm 16.09 Overcast OVC010 9.6 9.5 99% 75.92 0.0
07 20:35 Calm 16.09 Overcast SCT012 OVC065 9.3 9 98% 75.9 0.0
07 20:15 Calm 16.09 Mostly Cloudy BKN055 BKN075 9.5 9.2 98% 75.87 0.0
07 19:55 NE 6 16.09 Mostly Cloudy SCT006 SCT012 BKN049 9.9 9.8 11.1 9.9 99% 75.82 0.0
07 19:35 NE 7 16.09 Overcast SCT006 SCT012 OVC049 10 10 100% 9 75.84 0.0
07 19:15 NE 7 16.09 Overcast BKN012 OVC049 10.1 10 99% 75.84 0.0
07 18:55 NE 7 16.09 Overcast SCT007 BKN012 OVC047 10.3 10.2 99% 75.82 0.0
07 18:35 NE 7 16.09 Overcast BKN007 OVC043 10.5 10.4 99% 75.79 0.0
07 18:15 SE 7 16.09 Light Rain SCT009 SCT013 OVC043 10.5 10 97% 75.79 0.0
07 17:55 E 9 11.27 Light Rain BKN007 BKN012 OVC041 10.8 10.4 97% 75.82 0.0
07 17:35 NE 7 16.09 Overcast SCT007 BKN032 OVC041 10.6 10.1 97% 75.79 0.0
07 17:15 NE 9 16.09 Overcast BKN007 BKN013 OVC031 10.9 10.5 97% 75.79 0.0
07 16:55 N 9 16.09 Overcast BKN007 OVC010 11 10.8 99% 75.79 0.0
07 16:35 NE 11 16.09 Overcast BKN007 BKN013 OVC022 11 10.8 99% 75.79 0.0
07 16:15 NE 11 16.09 Overcast BKN007 BKN012 OVC022 11.1 11 99% 75.79 0.0
07 15:55 NE 9 8.05 Fog/Mist BKN007 OVC012 10.8 10.7 99% 75.82 0.0
07 15:35 N 11 8.05 Light Drizzle OVC010 10.7 10.6 99% 75.79 0.0
07 15:15 NE 9 8.05 Light Rain BKN008 OVC012 10.7 10.6 99% 75.79 0.0
07 14:55 NE 13 G 26 11.27 Light Rain OVC008 10.6 10.5 99% 75.77 0.0
07 14:35 NE 13 16.09 Overcast OVC008 10.6 10.5 99% 75.77 0.0
07 14:15 NE 17 G 28 11.27 Overcast OVC008 10.7 10.6 99% 75.79 0.0
07 13:55 NE 17 8.05 Fog/Mist BKN006 OVC012 11.1 11 17.1 11.1 99% 75.79 0.0
07 13:35 NE 17 G 33 4.83 Light Rain BKN008 BKN014 OVC019 11.2 11.1 99% 75.74 0.0
07 13:15 NE 17 G 28 6.44 Light Rain SCT008 BKN014 OVC019 11.3 11.2 99% 75.79 0.0
07 12:55 NE 22 G 28 16.09 Light Rain BKN010 OVC016 11.5 11.3 99% 75.74 0.0
07 12:35 NE 19 G 31 16.09 Light Rain BKN010 OVC016 11.6 11.5 99% 75.82 0.0
07 12:15 NE 17 16.09 Light Rain OVC008 11.5 11.3 99% 75.79 0.0
07 11:55 N 13 G 26 16.09 Light Rain OVC006 11.6 11.5 99% 75.87 0.0
07 11:35 NE 13 G 26 11.27 Light Rain OVC006 11.7 11.6 99% 75.79 0.0
07 11:15 N 15 11.27 Light Rain OVC006 11.7 11.6 99% 75.79 0.0
07 10:55 NE 15 G 33 8.05 Rain OVC006 11.9 11.7 99% 75.79 0.0
07 10:35 NE 20 G 33 6.44 Light Rain SCT004 OVC008 16.3 16.1 99% 75.74 0.0
07 10:15 Calm 6.44 Rain OVC006 17 17 100% 75.74 0.0
07 09:55 Calm 3.22 Rain SCT002 OVC006 17 16.8 99% 75.77 0.0
07 09:35 NW 6 1.61 Heavy Rain OVC006 16.8 16.7 99% 75.79 0.0
07 09:15 Calm 2.41 Heavy Rain OVC006 16.8 16.7 99% 75.74 0.0
07 08:55 Calm 1.61 Heavy Rain OVC004 16.7 16.6 99% 75.74 0.0
07 08:35 Calm 4.02 Light Rain BKN004 OVC008 16.8 16.6 99% 75.77 0.0
07 08:15 Calm 16.09 Overcast OVC004 16.7 16.6 99% 75.79 0.0
07 07:55 Calm 11.27 Overcast BKN004 OVC008 16.7 16.6 17.1 16.5 99% 75.79 0.0
07 07:35 Calm 11.27 Overcast BKN004 OVC009 16.6 16.5 99% 75.82 0.0
07 07:15 Calm 16.09 Overcast OVC006 16.6 16.5 99% 75.79 0.0
07 06:55 Calm 16.09 Overcast OVC006 16.5 16.5 100% 75.79 0.0
07 06:35 Calm 11.27 Overcast OVC006 16.5 16.5 100% 75.74 0.0
07 06:15 SW 7 11.27 Light Rain BKN004 OVC009 16.6 16.5 99% 75.79 0.0
07 05:55 SW 7 8.05 Rain BKN004 OVC008 16.6 16.5 99% 75.79 0.0
07 05:35 S 7 8.05 Light Rain SCT002 BKN006 OVC010 16.5 16.5 100% 75.74 0.0
07 05:15 S 13 8.05 Rain BKN004 BKN010 OVC026 16.6 16.5 99% 75.74 0.0
07 04:55 S 11 11.27 Light Rain OVC004 16.5 16.5 100% 75.79 0.0
07 04:35 SW 6 11.27 Light Rain SCT002 BKN010 OVC027 16.6 16.5 99% 75.79 0.0
07 04:15 SW 6 11.27 Light Rain SCT010 BKN028 OVC045 16.6 16.5 99% 75.79 0.0
07 03:55 S 7 16.09 Light Rain SCT013 BKN033 OVC047 16.6 16.5 99% 75.79 0.0
07 03:15 SW 15 8.05 Light Rain BKN008 OVC016 16.8 16.7 99% 75.82 0.0
07 02:55 SW 17 6.44 Rain BKN008 OVC015 16.8 16.7 99% 75.84 0.0
07 02:35 SW 15 4.02 Heavy Rain BKN010 BKN018 OVC043 17 16.8 99% 75.9 0.0
07 02:15 SW 15 G 26 11.27 Light Rain SCT002 BKN008 BKN021 17 17 100% 75.84 0.0
07 01:55 SW 11 11.27 Light Rain SCT008 SCT070 17.1 17 19.9 17 99% 75.87 0.0 0.03 0.08
07 01:35 SW 11 16.09 Mostly Cloudy SCT070 BKN080 17.3 17.2 99% 75.9 0.0 0.03
07 01:15 SW 9 16.09 Partly Cloudy SCT070 17.5 17.4 99% 75.9 0.0
07 00:55 SW 13 16.09 Partly Cloudy SCT003 SCT007 SCT010 17.5 17.2 98% 75.92 0.0 0.05
07 00:35 SW 11 11.27 Rain SCT003 BKN008 OVC011 18 17.2 95% 75.92 0.0 0.05
07 00:15 SW 15 11.27 Light Rain OVC006 17.6 17.5 99% 76 0.0 0.05
06 23:55 SW 7 16.09 Light Rain BKN001 BKN008 17.3 17.2 99% 75.95 0.0
06 23:35 Calm 16.09 Light Rain SCT001 SCT007 17 16.8 99% 75.92 0.0
06 23:15 Calm 11.27 Light Rain SCT001 17.2 17.1 99% 75.92 0.0
06 22:55 Calm 16.09 Light Rain SCT001 17.3 17 98% 75.95 0.0
06 22:35 Calm 16.09 Light Rain SCT001 17.9 16.3 90% 75.9 0.0
06 22:15 Calm 16.09 Fair CLR 17.9 16.2 90% 75.9 0.0
06 21:55 Calm 16.09 Light Rain CLR 18.5 16.1 86% 75.9 0.0
06 21:35 Calm 16.09 Fair CLR 18.9 15.1 79% 75.92 0.0
06 21:15 Calm 16.09 Fair CLR 19.5 15.1 76% 75.92 0.0
06 20:55 S 9 16.09 Fair CLR 19.5 15.1 76% 75.84 0.0
06 20:35 SW 11 16.09 Fair CLR 19.6 15 75% 75.87 0.0
06 20:15 SW 7 16.09 Fair CLR 19.4 15 76% 75.87 0.0
06 19:55 SW 11 16.09 Fair CLR 19.9 15 21.6 19.1 74% 75.9 0.0
06 19:35 SW 15 16.09 Fair CLR 20.3 15 72% 75.9 0.0
06 19:15 SW 15 G 28 16.09 Fair CLR 20.8 15 70% 75.92 0.0
06 18:55 SW 20 16.09 Fair CLR 20.7 15 70% 75.87 0.0
06 18:35 SW 19 G 26 16.09 Fair CLR 21 14.8 68% 75.87 0.0
06 18:15 SW 20 G 28 16.09 Fair CLR 21.6 15 66% 75.84 0.0
06 17:55 SW 19 G 35 16.09 Fair CLR 21.5 15 67% 75.87 0.0
06 17:35 SW 28 G 35 16.09 Partly Cloudy SCT024 21.5 15 67% 75.84 0.0
06 17:15 SW 24 G 30 16.09 Partly Cloudy SCT022 21.6 15 66% 75.87 0.0
06 16:55 SW 26 G 35 16.09 Partly Cloudy SCT022 21 15 69% 75.84 0.0
06 16:35 SW 22 G 37 16.09 Fair CLR 20.8 15 70% 75.82 0.0
06 16:15 S 28 G 43 16.09 Fair CLR 20.6 15 70% 75.82 0.0
06 15:55 S 30 G 39 16.09 Fair CLR 20.5 14.5 69% 75.82 0.0
06 15:35 S 19 G 31 16.09 Light Rain SCT001 20 14.5 71% 75.84 0.0
Date Time (edt) Wind (kph) Vis. (km) Weather Sky Cond. Air Dwpt Max. Min. Relative Humidity Wind Chill (°C) Heat Index (°C) altimeter (cm) sea level (mb) 1 hr 3 hr 6 hr
6 hour
Temperature (ºC) Pressure Precipitation (cm)